Time;durP1;ratioP1;P1;durP2;ratioP2;P2;SDS_P1;SDS_P2;PMS_P1;PMS_P2;Temp;Humidity;BMP_temperature;BMP_pressure;BME280_temperature;BME280_humidity;BME280_pressure;Samples;Min_cycle;Max_cycle;Signal;HPM_P1;HPM_P2
2022/11/05 00:11:11;;;;;;;1.60;0.82;;;13.10;60.00;;;;;;6241510;28;20033;-75
2022/11/05 00:17:32;;;;;;;1.35;0.90;;;13.10;59.90;;;;;;6250378;28;20112;-76
2022/11/05 00:20:33;;;;;;;1.42;0.80;;;13.10;59.80;;;;;;6250841;28;20041;-77
2022/11/05 00:26:54;;;;;;;2.53;1.30;;;13.20;59.70;;;;;;6234552;28;20107;-76
2022/11/05 00:29:55;;;;;;;2.67;1.42;;;13.10;59.70;;;;;;6228406;28;20053;-75
2022/11/05 00:33:03;;;;;;;2.42;1.02;;;13.10;59.80;;;;;;6214255;28;20080;-75
2022/11/05 00:36:06;;;;;;;1.07;0.80;;;13.10;59.80;;;;;;6240995;28;20328;-74
2022/11/05 00:39:07;;;;;;;1.10;0.77;;;13.10;59.90;;;;;;6228236;28;20041;-75
2022/11/05 00:45:29;;;;;;;1.48;1.08;;;13.10;59.80;;;;;;6248954;28;20485;-76
2022/11/05 00:52:54;;;;;;;1.33;0.70;;;13.10;59.60;;;;;;6250533;28;20029;-76
2022/11/05 00:55:10;;;;;;;2.28;0.80;;;13.10;59.60;;;;;;6232359;28;20030;-76
2022/11/05 00:58:17;;;;;;;4.03;1.80;;;13.10;59.60;;;;;;6216118;28;20044;-76
2022/11/05 01:01:18;;;;;;;10.88;2.30;;;13.20;59.80;;;;;;6203967;28;20127;-76
2022/11/05 01:04:19;;;;;;;3.25;2.20;;;13.20;59.80;;;;;;6230659;28;20033;-78
2022/11/05 01:07:20;;;;;;;3.08;1.60;;;13.30;59.90;;;;;;6252652;28;20362;-76
2022/11/05 01:10:23;;;;;;;2.90;1.63;;;13.30;60.00;;;;;;6188997;28;20026;-76
2022/11/05 01:13:28;;;;;;;5.80;2.25;;;13.30;60.10;;;;;;6248319;28;20116;-76
2022/11/05 01:16:29;;;;;;;3.60;2.05;;;13.30;60.30;;;;;;6235408;28;20037;-76
2022/11/05 01:19:31;;;;;;;3.58;1.95;;;13.20;60.30;;;;;;6212793;28;20026;-75
2022/11/05 01:22:32;;;;;;;2.38;1.50;;;13.30;60.50;;;;;;6215638;28;20053;-76
2022/11/05 01:25:33;;;;;;;5.75;1.65;;;13.30;60.50;;;;;;6216778;28;20063;-76
2022/11/05 01:28:34;;;;;;;3.03;1.88;;;13.40;60.60;;;;;;6208421;28;20044;-76
2022/11/05 01:31:35;;;;;;;9.43;2.75;;;13.40;60.40;;;;;;6227134;28;20466;-76
2022/11/05 01:34:36;;;;;;;2.50;1.60;;;13.40;60.40;;;;;;6210170;28;20049;-76
2022/11/05 01:37:38;;;;;;;4.35;1.95;;;13.40;60.40;;;;;;6251714;28;20033;-76
2022/11/05 01:40:42;;;;;;;3.28;1.40;;;13.30;60.40;;;;;;6230060;28;20406;-75
2022/11/05 01:43:53;;;;;;;3.03;1.40;;;13.30;60.60;;;;;;6234075;28;20108;-76
2022/11/05 01:46:54;;;;;;;2.33;1.50;;;13.30;60.70;;;;;;6248837;28;20409;-76
2022/11/05 01:49:58;;;;;;;3.55;1.60;;;13.40;60.60;;;;;;6232014;28;20039;-76
2022/11/05 01:53:02;;;;;;;3.58;1.80;;;13.40;60.60;;;;;;6250204;28;20070;-76
2022/11/05 01:56:11;;;;;;;4.20;1.30;;;13.40;60.60;;;;;;6233372;28;20351;-75
2022/11/05 01:59:17;;;;;;;3.95;1.35;;;13.40;60.30;;;;;;6249607;28;20071;-75
2022/11/05 02:02:18;;;;;;;7.00;1.17;;;13.50;60.40;;;;;;6249075;28;20043;-75
2022/11/05 02:05:19;;;;;;;2.55;1.27;;;13.50;60.20;;;;;;6228532;28;20157;-75
2022/11/05 02:08:40;;;;;;;3.70;1.38;;;13.50;60.00;;;;;;6250996;28;20037;-76
2022/11/05 02:11:42;;;;;;;6.80;1.42;;;13.50;59.80;;;;;;6241775;28;20033;-76
2022/11/05 02:14:43;;;;;;;1.13;0.73;;;13.50;59.60;;;;;;6252290;28;20056;-75
2022/11/05 02:17:55;;;;;;;1.73;1.00;;;13.50;59.60;;;;;;6235055;28;20034;-75
2022/11/05 02:21:32;;;;;;;3.00;1.38;;;13.50;60.10;;;;;;6234144;28;20034;-76
2022/11/05 02:24:54;;;;;;;2.10;0.77;;;13.50;59.50;;;;;;6227636;28;20034;-76
2022/11/05 02:28:23;;;;;;;3.00;1.40;;;13.50;59.50;;;;;;6246868;28;20030;-76
2022/11/05 02:31:38;;;;;;;3.92;1.70;;;13.50;59.30;;;;;;6231662;28;20128;-76
2022/11/05 02:34:59;;;;;;;6.07;1.55;;;13.50;59.30;;;;;;6243241;28;20048;-76
2022/11/05 02:38:32;;;;;;;8.50;3.08;;;13.50;59.40;;;;;;6235250;28;20160;-76
2022/11/05 02:41:45;;;;;;;10.30;2.90;;;13.50;59.50;;;;;;6217001;28;20422;-77
2022/11/05 02:44:55;;;;;;;12.50;3.58;;;13.50;59.50;;;;;;6246982;28;20041;-75
2022/11/05 02:48:01;;;;;;;8.68;3.55;;;13.50;59.60;;;;;;6253968;28;20510;-77
2022/11/05 02:51:25;;;;;;;5.20;2.47;;;13.50;59.60;;;;;;6248702;28;20033;-75
2022/11/05 02:54:55;;;;;;;7.13;3.00;;;13.50;59.70;;;;;;6248801;28;20055;-75
2022/11/05 02:57:58;;;;;;;4.68;2.78;;;13.50;59.80;;;;;;6236585;28;20472;-75
2022/11/05 03:01:00;;;;;;;6.97;2.40;;;13.50;59.90;;;;;;6239565;28;20042;-77
2022/11/05 03:04:05;;;;;;;5.82;2.38;;;13.50;60.00;;;;;;6213851;28;20437;-75
2022/11/05 03:07:15;;;;;;;1.63;1.25;;;13.50;60.00;;;;;;6210989;28;20054;-75
2022/11/05 03:10:52;;;;;;;3.17;1.20;;;13.50;59.90;;;;;;6248610;28;20052;-75
2022/11/05 03:14:12;;;;;;;4.55;1.30;;;13.50;59.70;;;;;;6237755;28;20045;-76
2022/11/05 03:17:44;;;;;;;1.83;1.05;;;13.50;59.50;;;;;;6227302;28;20060;-76
2022/11/05 03:20:55;;;;;;;3.15;1.15;;;13.60;59.40;;;;;;6243824;28;20033;-75
2022/11/05 03:24:06;;;;;;;2.83;1.08;;;13.50;58.90;;;;;;6248909;28;20107;-76
2022/11/05 03:27:22;;;;;;;4.50;1.23;;;13.50;58.70;;;;;;6209273;28;20040;-76
2022/11/05 03:30:24;;;;;;;1.92;1.23;;;13.60;58.80;;;;;;6229520;28;20034;-75
2022/11/05 03:33:30;;;;;;;3.85;1.05;;;13.60;58.70;;;;;;6249752;28;20052;-75
2022/11/05 03:36:38;;;;;;;2.70;1.08;;;13.60;58.70;;;;;;6236956;28;20033;-76
2022/11/05 03:39:46;;;;;;;2.40;1.00;;;13.60;58.70;;;;;;6223063;28;20057;-75
2022/11/05 03:42:52;;;;;;;6.03;1.42;;;13.60;58.70;;;;;;6252681;28;20038;-75
2022/11/05 03:45:59;;;;;;;1.08;0.70;;;13.60;58.60;;;;;;6232329;28;20124;-76
2022/11/05 03:49:03;;;;;;;1.13;0.77;;;13.60;58.30;;;;;;6239986;28;20128;-76
2022/11/05 03:52:13;;;;;;;1.65;0.80;;;13.50;58.30;;;;;;6255837;28;20120;-76
2022/11/05 03:55:15;;;;;;;1.17;0.63;;;13.50;58.40;;;;;;6255209;28;20037;-76
2022/11/05 03:58:19;;;;;;;4.45;1.70;;;13.50;58.30;;;;;;6254063;28;20370;-75
2022/11/05 04:01:20;;;;;;;2.65;1.30;;;13.50;58.40;;;;;;6251206;28;20044;-76
2022/11/05 04:04:21;;;;;;;4.15;1.40;;;13.50;58.60;;;;;;6248775;28;20348;-75
2022/11/05 04:14:01;;;;;;;3.92;1.55;;;13.40;59.00;;;;;;6251023;28;20045;-76
2022/11/05 04:17:05;;;;;;;4.85;2.03;;;13.40;59.20;;;;;;6250605;28;20461;-76
2022/11/05 04:26:46;;;;;;;7.55;2.10;;;13.30;59.40;;;;;;6237709;28;20041;-76
2022/11/05 04:33:11;;;;;;;1.88;1.45;;;13.30;59.70;;;;;;6250604;28;20057;-75
2022/11/05 04:36:12;;;;;;;3.33;1.60;;;13.30;59.80;;;;;;6253777;28;20428;-75
2022/11/05 04:39:13;;;;;;;6.30;1.73;;;13.30;59.90;;;;;;6252270;28;20063;-76
2022/11/05 04:42:14;;;;;;;5.90;1.98;;;13.30;59.90;;;;;;6253213;28;20511;-76
2022/11/05 04:45:15;;;;;;;3.28;1.52;;;13.30;59.90;;;;;;6234525;28;20052;-76
2022/11/05 04:48:16;;;;;;;4.60;1.88;;;13.30;59.90;;;;;;6221798;28;20033;-76
2022/11/05 04:51:18;;;;;;;3.00;1.50;;;13.30;59.90;;;;;;6243725;28;20477;-76
2022/11/05 04:54:19;;;;;;;4.45;2.35;;;13.30;59.90;;;;;;6252369;28;20362;-75
2022/11/05 04:57:20;;;;;;;5.13;2.05;;;13.30;59.90;;;;;;6234582;28;20040;-75
2022/11/05 05:00:22;;;;;;;2.95;1.85;;;13.20;60.00;;;;;;6249509;28;20047;-76
2022/11/05 05:03:23;;;;;;;3.85;1.85;;;13.30;60.10;;;;;;6212843;28;20086;-75
2022/11/05 05:06:24;;;;;;;3.28;1.80;;;13.30;60.10;;;;;;6235924;28;20112;-76
2022/11/05 05:09:25;;;;;;;5.38;1.95;;;13.30;60.10;;;;;;6237970;28;20132;-75
2022/11/05 05:12:26;;;;;;;3.45;2.10;;;13.30;60.30;;;;;;6222297;28;20545;-75
2022/11/05 05:15:27;;;;;;;3.80;1.95;;;13.30;61.20;;;;;;6239739;28;20040;-75
2022/11/05 05:18:28;;;;;;;6.90;2.42;;;13.30;60.40;;;;;;6255851;28;20034;-75
2022/11/05 05:21:39;;;;;;;3.38;1.92;;;13.20;60.50;;;;;;6247451;28;20093;-75
2022/11/05 05:24:40;;;;;;;4.07;2.10;;;13.20;60.60;;;;;;6245240;28;20036;-76
2022/11/05 05:27:41;;;;;;;3.70;2.40;;;13.10;60.70;;;;;;6257750;28;20065;-77
2022/11/05 05:30:42;;;;;;;2.75;1.75;;;13.10;60.80;;;;;;6238711;28;20048;-76
2022/11/05 05:33:43;;;;;;;4.25;1.52;;;13.10;60.90;;;;;;6239414;28;20095;-77
2022/11/05 05:36:44;;;;;;;2.88;1.35;;;13.10;61.10;;;;;;6245875;28;20140;-76
2022/11/05 05:39:46;;;;;;;0.85;0.63;;;13.10;61.10;;;;;;6255008;28;20045;-76
2022/11/05 05:42:51;;;;;;;3.70;1.88;;;13.10;61.00;;;;;;6254874;28;20026;-75
2022/11/05 05:45:52;;;;;;;3.75;2.00;;;13.20;60.70;;;;;;6256505;28;20041;-75
2022/11/05 05:48:53;;;;;;;4.22;1.52;;;13.20;60.70;;;;;;6234948;28;20380;-75
2022/11/05 05:51:56;;;;;;;1.90;1.60;;;13.20;60.70;;;;;;6253845;28;20045;-77
2022/11/05 05:54:57;;;;;;;3.60;1.88;;;13.10;60.70;;;;;;6235596;28;20021;-76
2022/11/05 05:57:58;;;;;;;2.88;1.05;;;13.20;60.80;;;;;;6236043;28;20037;-77
2022/11/05 06:01:04;;;;;;;0.63;0.50;;;13.20;60.80;;;;;;6253120;28;20091;-76
2022/11/05 06:04:05;;;;;;;0.82;0.45;;;13.20;60.80;;;;;;6207657;28;20033;-75
2022/11/05 06:07:07;;;;;;;0.40;0.40;;;13.20;60.80;;;;;;6234236;28;20048;-76
2022/11/05 06:10:09;;;;;;;0.55;0.40;;;13.20;60.70;;;;;;6239831;28;20091;-75
2022/11/05 06:13:10;;;;;;;1.15;0.52;;;13.10;60.70;;;;;;6233781;28;20037;-75
2022/11/05 06:16:11;;;;;;;0.55;0.43;;;13.10;60.90;;;;;;6250413;28;20086;-75
2022/11/05 06:19:12;;;;;;;1.42;0.50;;;13.10;61.00;;;;;;6233905;28;20042;-76
2022/11/05 06:22:13;;;;;;;1.63;0.52;;;13.10;61.10;;;;;;6217981;28;20072;-76
2022/11/05 06:25:14;;;;;;;0.68;0.68;;;13.10;61.20;;;;;;6232562;28;20395;-76
2022/11/05 06:28:15;;;;;;;2.30;1.20;;;13.00;61.20;;;;;;6232515;28;20037;-76
2022/11/05 06:31:16;;;;;;;0.60;0.60;;;13.10;61.30;;;;;;6231613;28;20040;-75
2022/11/05 06:34:17;;;;;;;1.50;0.93;;;13.10;61.30;;;;;;6247348;28;20048;-76
2022/11/05 06:37:18;;;;;;;3.05;2.28;;;13.10;61.30;;;;;;6250918;28;20037;-75
2022/11/05 06:40:19;;;;;;;1.23;0.90;;;13.20;61.30;;;;;;6251101;28;20088;-75
2022/11/05 06:43:20;;;;;;;2.85;1.65;;;13.20;61.30;;;;;;6217638;28;20069;-75
2022/11/05 06:46:21;;;;;;;4.82;2.08;;;13.20;61.30;;;;;;6229500;28;20072;-75
2022/11/05 06:49:23;;;;;;;3.72;1.95;;;13.20;61.30;;;;;;6226006;28;20030;-75
2022/11/05 06:52:26;;;;;;;6.43;1.80;;;13.20;61.30;;;;;;6229987;28;20038;-76
2022/11/05 06:55:29;;;;;;;3.47;1.88;;;13.20;61.40;;;;;;6211728;28;20110;-77
2022/11/05 06:58:31;;;;;;;5.40;1.95;;;13.20;61.50;;;;;;6243299;28;20065;-76
2022/11/05 07:01:32;;;;;;;3.28;1.52;;;13.20;61.50;;;;;;6218836;28;20402;-77
2022/11/05 07:04:33;;;;;;;3.40;1.45;;;13.30;61.40;;;;;;6234709;28;20092;-77
2022/11/05 07:07:34;;;;;;;3.63;1.63;;;13.30;61.30;;;;;;6243936;28;20495;-77
2022/11/05 07:10:35;;;;;;;3.80;1.92;;;13.30;61.20;;;;;;6245282;28;20037;-77
2022/11/05 07:13:36;;;;;;;3.80;1.98;;;13.40;61.20;;;;;;6258921;28;20041;-77
2022/11/05 07:16:37;;;;;;;3.63;1.85;;;13.40;61.10;;;;;;6241466;28;20048;-76
2022/11/05 07:19:38;;;;;;;4.32;1.90;;;13.40;60.90;;;;;;6258949;28;20043;-76
2022/11/05 07:22:39;;;;;;;2.67;1.90;;;13.40;61.00;;;;;;6258762;28;20107;-75
2022/11/05 07:25:41;;;;;;;1.90;1.58;;;13.40;60.90;;;;;;6238865;28;20045;-77
2022/11/05 07:28:42;;;;;;;5.00;1.98;;;13.50;61.10;;;;;;6258425;28;20099;-77
2022/11/05 07:31:45;;;;;;;6.03;2.03;;;13.50;61.00;;;;;;6240873;28;20128;-77
2022/11/05 07:34:46;;;;;;;5.57;2.40;;;13.50;60.80;;;;;;6236668;28;20072;-75
2022/11/05 07:37:49;;;;;;;3.30;1.77;;;13.50;60.80;;;;;;6257923;28;20045;-76
2022/11/05 07:40:50;;;;;;;2.53;1.50;;;13.50;60.80;;;;;;6214722;28;20417;-76
2022/11/05 07:43:51;;;;;;;3.83;2.13;;;13.60;60.80;;;;;;6238886;28;20033;-76
2022/11/05 07:46:52;;;;;;;4.35;2.30;;;13.50;60.50;;;;;;6251286;28;20036;-76
2022/11/05 07:49:53;;;;;;;5.30;2.20;;;13.60;60.60;;;;;;6250439;28;20125;-75
2022/11/05 07:53:12;;;;;;;3.95;2.13;;;13.60;60.40;;;;;;6236142;28;20053;-76
2022/11/05 07:56:13;;;;;;;;;;;13.60;60.50;;;;;;6254278;28;20403;-76
2022/11/05 07:59:15;;;;;;;4.20;2.28;;;13.60;60.40;;;;;;6245511;28;19921;-76
2022/11/05 08:02:16;;;;;;;3.17;2.03;;;13.70;60.30;;;;;;6249769;28;20073;-76
2022/11/05 08:05:17;;;;;;;3.17;2.20;;;13.60;60.40;;;;;;6233078;28;20032;-76
2022/11/05 08:08:19;;;;;;;3.17;1.98;;;13.70;60.40;;;;;;6249159;28;20037;-76
2022/11/05 08:11:20;;;;;;;3.45;2.13;;;13.60;60.30;;;;;;6235356;28;20442;-76
2022/11/05 08:14:20;;;;;;;3.22;1.90;;;13.70;60.20;;;;;;6232700;28;20026;-76
2022/11/05 08:17:22;;;;;;;4.30;2.13;;;13.70;60.10;;;;;;6240219;28;20029;-75
2022/11/05 08:20:23;;;;;;;2.80;1.70;;;13.80;60.20;;;;;;6253890;28;20117;-75
2022/11/05 08:23:25;;;;;;;4.63;2.00;;;13.90;60.10;;;;;;6246727;28;20139;-76
2022/11/05 08:26:26;;;;;;;2.90;1.48;;;14.00;60.10;;;;;;6252010;28;20128;-75
2022/11/05 08:29:27;;;;;;;1.92;1.70;;;14.10;60.00;;;;;;6235978;28;20372;-76
2022/11/05 08:32:28;;;;;;;4.05;2.40;;;14.20;59.70;;;;;;6248451;28;20067;-76
2022/11/05 08:35:29;;;;;;;9.82;2.38;;;14.20;59.60;;;;;;6235453;28;20173;-77
2022/11/05 08:38:30;;;;;;;3.92;2.13;;;14.30;59.50;;;;;;6233376;28;20040;-77
2022/11/05 08:41:31;;;;;;;3.20;1.73;;;14.40;59.40;;;;;;6253145;28;20029;-77
2022/11/05 08:44:32;;;;;;;2.70;1.70;;;14.40;59.40;;;;;;6223258;28;20082;-77
2022/11/05 08:47:33;;;;;;;3.30;1.58;;;14.50;59.10;;;;;;6234898;28;20106;-76
2022/11/05 08:50:36;;;;;;;3.88;2.05;;;14.60;59.10;;;;;;6246574;28;20039;-76
2022/11/05 08:53:37;;;;;;;6.40;1.83;;;14.60;59.10;;;;;;6234267;28;20180;-77
2022/11/05 08:56:38;;;;;;;2.45;1.50;;;14.60;59.00;;;;;;6249292;28;20074;-75
2022/11/05 08:59:39;;;;;;;2.90;1.50;;;14.70;58.90;;;;;;6255385;28;20107;-77
2022/11/05 09:02:40;;;;;;;2.13;1.58;;;14.70;58.60;;;;;;6236622;28;20107;-76
2022/11/05 09:05:42;;;;;;;2.60;1.48;;;14.80;58.50;;;;;;6232499;28;20067;-76
2022/11/05 09:08:43;;;;;;;9.85;2.83;;;14.90;58.30;;;;;;6249780;28;20473;-78
2022/11/05 09:11:45;;;;;;;2.75;1.27;;;14.90;58.20;;;;;;6231854;28;20048;-76
2022/11/05 09:14:46;;;;;;;2.55;1.33;;;14.90;57.80;;;;;;6250023;28;20048;-77
2022/11/05 09:17:47;;;;;;;3.10;1.58;;;15.00;57.60;;;;;;6230630;28;20053;-76
2022/11/05 09:20:48;;;;;;;1.05;0.85;;;15.00;57.50;;;;;;6237995;28;20472;-77
2022/11/05 09:23:50;;;;;;;1.67;1.05;;;15.10;57.20;;;;;;6217968;28;20030;-78
2022/11/05 09:26:51;;;;;;;3.47;1.08;;;15.10;57.20;;;;;;6236316;28;20041;-77
2022/11/05 09:29:52;;;;;;;3.15;1.10;;;15.20;56.90;;;;;;6253664;28;20139;-77
2022/11/05 09:32:54;;;;;;;1.65;1.00;;;15.30;56.80;;;;;;6216705;28;20037;-77
2022/11/05 09:35:58;;;;;;;3.88;1.13;;;15.40;56.60;;;;;;6226824;28;20033;-77
2022/11/05 09:38:59;;;;;;;1.75;1.10;;;15.40;56.30;;;;;;6222239;28;20123;-76
2022/11/05 09:42:05;;;;;;;1.20;0.93;;;15.50;56.20;;;;;;6226663;28;20041;-77
2022/11/05 09:45:17;;;;;;;1.65;0.70;;;15.50;56.20;;;;;;6215713;28;20049;-77
2022/11/05 09:48:22;;;;;;;1.67;0.70;;;15.50;56.20;;;;;;6249586;28;20132;-77
2022/11/05 09:51:23;;;;;;;1.00;0.70;;;15.60;56.00;;;;;;6254093;28;20065;-77
2022/11/05 09:54:28;;;;;;;1.38;0.82;;;15.60;55.80;;;;;;6231462;28;20370;-76
2022/11/05 09:57:45;;;;;;;4.07;0.90;;;15.80;55.60;;;;;;6249112;28;20470;-75
2022/11/05 10:00:51;;;;;;;3.10;1.10;;;15.90;55.50;;;;;;6243447;28;20050;-76
2022/11/05 10:03:57;;;;;;;1.20;0.70;;;16.00;55.40;;;;;;6210744;28;20033;-78
2022/11/05 10:07:00;;;;;;;1.10;0.82;;;16.00;55.00;;;;;;6230003;28;20416;-76
2022/11/05 10:10:05;;;;;;;4.38;0.80;;;16.10;54.70;;;;;;6191316;28;20265;-78
2022/11/05 10:13:21;;;;;;;2.42;1.08;;;16.00;54.70;;;;;;6218373;28;20689;-78
2022/11/05 10:16:28;;;;;;;2.90;0.98;;;16.00;54.80;;;;;;6252861;28;20618;-77
2022/11/05 10:19:46;;;;;;;0.85;0.60;;;16.00;54.80;;;;;;6224798;28;20116;-76
2022/11/05 10:22:53;;;;;;;0.90;0.60;;;15.90;54.80;;;;;;6249217;28;20344;-75
2022/11/05 10:26:20;;;;;;;4.05;0.80;;;15.80;54.30;;;;;;6247213;28;20480;-78
2022/11/05 10:29:31;;;;;;;1.27;1.00;;;15.70;54.00;;;;;;6230815;28;20038;-76
2022/11/05 10:32:39;;;;;;;2.03;0.88;;;15.60;54.00;;;;;;6234862;28;20107;-76
2022/11/05 10:35:50;;;;;;;0.80;0.60;;;15.70;54.00;;;;;;6238018;28;20032;-76
2022/11/05 10:38:55;;;;;;;0.40;0.40;;;15.70;54.20;;;;;;6227371;28;20113;-77
2022/11/05 10:42:05;;;;;;;1.05;0.90;;;15.80;53.80;;;;;;6220074;28;20037;-77
2022/11/05 10:45:15;;;;;;;1.17;0.40;;;15.80;53.60;;;;;;6235323;28;20041;-77
2022/11/05 10:48:29;;;;;;;1.33;0.80;;;15.80;53.10;;;;;;6248664;28;20450;-77
2022/11/05 10:51:32;;;;;;;4.88;0.80;;;15.80;53.20;;;;;;6232533;28;20025;-77
2022/11/05 10:54:34;;;;;;;1.55;0.90;;;15.80;53.30;;;;;;6245990;28;20129;-77
2022/11/05 10:57:38;;;;;;;2.17;0.70;;;15.80;54.00;;;;;;6220384;28;20037;-76
2022/11/05 11:00:40;;;;;;;1.20;0.60;;;15.90;53.40;;;;;;6244829;28;20043;-78
2022/11/05 11:03:47;;;;;;;1.88;0.80;;;16.00;53.50;;;;;;6214543;28;20183;-76
2022/11/05 11:06:50;;;;;;;3.92;0.70;;;16.10;53.40;;;;;;6251882;28;20420;-78
2022/11/05 11:09:52;;;;;;;1.35;0.93;;;16.20;53.30;;;;;;6237424;28;20344;-78
2022/11/05 11:12:55;;;;;;;1.42;0.98;;;16.20;53.20;;;;;;6250058;28;20382;-77
2022/11/05 11:16:14;;;;;;;1.60;0.80;;;16.20;52.90;;;;;;6250967;28;20045;-77
2022/11/05 11:19:30;;;;;;;1.98;0.82;;;16.20;52.70;;;;;;6245420;28;20049;-76
2022/11/05 11:22:31;;;;;;;1.83;0.77;;;16.20;52.40;;;;;;6235707;28;20041;-76
2022/11/05 11:25:40;;;;;;;2.45;0.98;;;16.10;52.20;;;;;;6248286;28;20053;-78
2022/11/05 11:28:55;;;;;;;1.05;0.70;;;16.10;52.20;;;;;;6228831;28;20056;-77
2022/11/05 11:31:57;;;;;;;5.13;0.90;;;16.10;52.20;;;;;;6231779;28;20033;-78
2022/11/05 11:34:59;;;;;;;2.70;0.70;;;16.10;52.40;;;;;;6240347;28;20102;-76
2022/11/05 11:38:01;;;;;;;1.38;0.80;;;16.20;52.40;;;;;;6250048;28;20112;-77
2022/11/05 11:41:23;;;;;;;5.30;1.30;;;16.20;52.30;;;;;;6231777;28;20322;-77
2022/11/05 11:44:33;;;;;;;1.50;0.98;;;16.20;52.20;;;;;;6245977;28;20048;-77
2022/11/05 11:47:34;;;;;;;3.38;1.20;;;16.20;52.30;;;;;;6244754;28;20041;-76
2022/11/05 11:50:44;;;;;;;1.70;1.10;;;16.20;52.10;;;;;;6249662;28;20048;-75
2022/11/05 11:53:48;;;;;;;1.85;1.20;;;16.20;52.10;;;;;;6256044;28;20041;-76
2022/11/05 11:56:49;;;;;;;0.95;0.85;;;16.30;52.00;;;;;;6241173;28;20434;-78
2022/11/05 11:59:51;;;;;;;1.52;1.00;;;16.30;51.80;;;;;;6220032;28;20069;-76
2022/11/05 12:03:10;;;;;;;4.25;1.63;;;16.30;51.90;;;;;;6234887;28;20033;-78
2022/11/05 12:06:19;;;;;;;1.77;1.00;;;16.20;52.50;;;;;;6232833;28;20045;-76
2022/11/05 12:09:23;;;;;;;1.30;0.90;;;16.20;51.80;;;;;;6253505;28;20120;-76
2022/11/05 12:12:46;;;;;;;1.33;1.08;;;16.10;51.70;;;;;;6251705;28;20039;-78
2022/11/05 12:15:54;;;;;;;3.25;0.80;;;16.10;51.90;;;;;;6236015;28;20029;-77
2022/11/05 12:19:33;;;;;;;1.30;1.00;;;16.20;51.50;;;;;;6236884;28;20462;-76
2022/11/05 12:22:36;;;;;;;1.23;0.75;;;16.20;51.50;;;;;;6232760;28;20118;-77
2022/11/05 12:25:44;;;;;;;2.03;1.25;;;16.20;52.10;;;;;;6235887;28;20081;-77
2022/11/05 12:28:48;;;;;;;4.78;1.33;;;16.20;51.60;;;;;;6252215;28;20045;-77
2022/11/05 12:32:34;;;;;;;1.33;1.10;;;16.30;51.60;;;;;;6250099;28;20029;-77
2022/11/05 12:35:53;;;;;;;2.80;0.98;;;16.30;51.60;;;;;;6227175;28;20068;-77
2022/11/05 12:39:20;;;;;;;1.48;1.00;;;16.40;51.60;;;;;;6247064;28;20447;-77
2022/11/05 12:43:04;;;;;;;9.15;2.97;;;16.40;51.50;;;;;;6222272;28;20049;-75
2022/11/05 12:46:23;;;;;;;2.03;1.25;;;16.40;51.40;;;;;;6169443;28;20100;-77
2022/11/05 12:49:50;;;;;;;1.58;1.20;;;16.40;51.10;;;;;;6171495;28;20030;-77
2022/11/05 12:53:28;;;;;;;0.85;0.68;;;16.40;51.00;;;;;;6162432;28;20054;-76
2022/11/05 12:56:38;;;;;;;1.35;0.82;;;16.50;50.80;;;;;;6161041;28;20046;-77
2022/11/05 12:59:57;;;;;;;2.20;0.90;;;16.50;50.70;;;;;;6160372;28;20035;-77
2022/11/05 13:03:23;;;;;;;1.35;0.90;;;16.60;50.80;;;;;;6173990;28;20050;-77
2022/11/05 13:06:31;;;;;;;1.30;0.80;;;16.50;50.50;;;;;;6158847;28;20041;-77
2022/11/05 13:09:58;;;;;;;1.40;1.23;;;16.50;50.60;;;;;;6177408;28;20091;-78
2022/11/05 13:13:40;;;;;;;1.45;0.90;;;16.60;50.80;;;;;;6151997;28;20340;-77
2022/11/05 13:16:52;;;;;;;1.10;0.80;;;16.60;50.70;;;;;;6162836;28;20431;-77
2022/11/05 13:20:04;;;;;;;1.08;0.85;;;16.60;50.60;;;;;;6161646;28;20128;-77
2022/11/05 13:23:42;;;;;;;2.10;0.82;;;16.50;50.40;;;;;;6227497;28;20059;-76
2022/11/05 13:26:49;;;;;;;2.13;1.10;;;16.50;50.60;;;;;;6249767;28;20037;-76
2022/11/05 13:30:00;;;;;;;1.40;1.10;;;16.50;50.70;;;;;;6227792;28;20033;-78
2022/11/05 13:33:09;;;;;;;3.67;1.63;;;16.50;50.50;;;;;;6248058;28;20057;-76
2022/11/05 13:40:00;;;;;;;2.55;1.02;;;16.50;50.70;;;;;;6248096;28;20041;-76
2022/11/05 13:43:22;;;;;;;3.83;1.40;;;16.50;51.30;;;;;;6229183;28;20064;-76
2022/11/05 13:46:42;;;;;;;2.22;1.35;;;16.40;50.50;;;;;;6231892;28;20526;-76
2022/11/05 13:50:11;;;;;;;4.32;1.55;;;16.40;50.50;;;;;;6209192;28;20145;-78
2022/11/05 13:53:32;;;;;;;2.15;1.27;;;16.40;50.60;;;;;;6246633;28;20716;-77
2022/11/05 13:56:52;;;;;;;1.73;1.25;;;16.40;50.80;;;;;;6231691;28;20037;-76
2022/11/05 14:00:17;;;;;;;2.72;1.08;;;16.40;50.80;;;;;;6227111;28;20090;-76
2022/11/05 14:03:20;;;;;;;1.58;1.20;;;16.40;50.80;;;;;;6227300;28;20526;-77
2022/11/05 14:06:34;;;;;;;2.33;1.17;;;16.50;50.80;;;;;;6216958;28;20482;-76
2022/11/05 14:09:36;;;;;;;1.88;1.27;;;16.40;50.90;;;;;;6216568;28;20416;-76
2022/11/05 14:12:39;;;;;;;2.60;1.10;;;16.40;51.00;;;;;;6228049;28;20041;-76
2022/11/05 14:15:51;;;;;;;1.98;1.30;;;16.40;51.00;;;;;;6249536;28;20079;-77
2022/11/05 14:19:19;;;;;;;1.95;1.20;;;16.40;51.00;;;;;;6248132;28;20029;-75
2022/11/05 14:22:32;;;;;;;6.15;1.27;;;16.40;50.90;;;;;;6247226;28;20159;-76
2022/11/05 14:25:33;;;;;;;1.83;1.20;;;16.30;51.00;;;;;;6229097;28;20033;-76
2022/11/05 14:28:34;;;;;;;3.40;1.20;;;16.30;51.00;;;;;;6231968;28;20535;-77
2022/11/05 14:31:53;;;;;;;4.10;0.93;;;16.30;51.20;;;;;;6246353;28;20036;-77
2022/11/05 14:35:20;;;;;;;1.52;1.00;;;16.30;51.20;;;;;;6243566;28;20076;-76
2022/11/05 14:38:26;;;;;;;2.22;1.00;;;16.30;51.30;;;;;;6249404;28;20041;-75
2022/11/05 14:41:27;;;;;;;1.10;0.82;;;16.40;51.40;;;;;;6229393;28;20112;-76
2022/11/05 14:44:31;;;;;;;2.97;1.30;;;16.40;51.40;;;;;;6247364;28;20478;-76
2022/11/05 14:47:36;;;;;;;1.85;1.20;;;16.30;51.40;;;;;;6229254;28;20377;-77
2022/11/05 14:50:41;;;;;;;2.20;1.17;;;16.30;51.40;;;;;;6247169;28;20432;-76
2022/11/05 14:53:42;;;;;;;2.85;1.20;;;16.20;51.50;;;;;;6234237;28;20041;-75
2022/11/05 14:56:48;;;;;;;3.25;1.30;;;16.20;51.70;;;;;;6250902;28;20037;-77
2022/11/05 14:59:52;;;;;;;2.70;1.20;;;16.10;51.80;;;;;;6252526;28;20025;-76
2022/11/05 15:02:58;;;;;;;2.97;1.10;;;16.10;51.90;;;;;;6244820;28;20103;-76
2022/11/05 15:06:22;;;;;;;6.70;1.30;;;16.00;51.80;;;;;;6214370;28;20079;-77
2022/11/05 15:09:32;;;;;;;2.65;1.10;;;15.90;51.90;;;;;;6244262;28;20467;-77
2022/11/05 15:12:55;;;;;;;3.42;1.27;;;15.90;52.00;;;;;;6229766;28;20392;-77
2022/11/05 15:15:57;;;;;;;6.72;1.65;;;15.80;52.10;;;;;;6228843;28;20053;-76
2022/11/05 15:18:59;;;;;;;2.90;1.45;;;15.70;52.10;;;;;;6244250;28;20032;-76
2022/11/05 15:22:05;;;;;;;2.40;1.20;;;15.70;52.20;;;;;;6236172;28;20047;-76
2022/11/05 15:25:19;;;;;;;3.80;1.23;;;15.70;52.20;;;;;;6237688;28;20049;-75
2022/11/05 15:28:31;;;;;;;4.07;1.10;;;15.70;52.20;;;;;;6241091;28;20037;-76
2022/11/05 15:31:40;;;;;;;3.33;1.13;;;15.70;52.10;;;;;;6233393;28;20444;-76
2022/11/05 15:34:50;;;;;;;6.53;1.35;;;15.70;52.00;;;;;;6247821;28;20048;-77
2022/11/05 15:37:55;;;;;;;1.40;0.90;;;15.70;52.00;;;;;;6254627;28;20693;-77
2022/11/05 15:41:05;;;;;;;5.75;1.58;;;15.70;52.10;;;;;;6255525;28;20359;-78
2022/11/05 15:44:24;;;;;;;4.93;1.27;;;15.70;52.10;;;;;;6241384;28;20151;-76
2022/11/05 15:47:33;;;;;;;1.92;1.30;;;15.70;52.10;;;;;;6224743;28;20110;-76
2022/11/05 15:50:33;;;;;;;3.95;1.23;;;15.60;52.10;;;;;;6243215;28;20037;-77
2022/11/05 15:53:46;;;;;;;3.45;1.30;;;15.60;52.30;;;;;;6251721;28;20477;-77
2022/11/05 15:56:54;;;;;;;4.60;1.60;;;15.50;52.40;;;;;;6251946;28;20037;-76
2022/11/05 15:59:55;;;;;;;7.07;1.13;;;15.50;52.40;;;;;;6250868;28;20523;-76
2022/11/05 16:03:06;;;;;;;2.58;1.00;;;15.40;52.50;;;;;;6207671;28;20033;-76
2022/11/05 16:06:08;;;;;;;5.45;1.50;;;15.30;52.60;;;;;;6236468;28;20030;-78
2022/11/05 16:09:28;;;;;;;2.60;0.95;;;15.30;52.80;;;;;;6220637;28;20037;-76
2022/11/05 16:12:34;;;;;;;3.50;1.38;;;15.20;52.90;;;;;;6252198;28;20037;-75
2022/11/05 16:15:35;;;;;;;3.50;1.10;;;15.20;53.10;;;;;;6254684;28;20041;-77
2022/11/05 16:18:37;;;;;;;8.95;1.23;;;15.10;53.10;;;;;;6250906;28;20082;-76
2022/11/05 16:21:53;;;;;;;2.92;1.40;;;15.10;53.20;;;;;;6237770;28;20041;-76
2022/11/05 16:24:53;;;;;;;7.40;1.35;;;15.00;53.30;;;;;;6233888;28;20195;-77
2022/11/05 16:27:59;;;;;;;2.58;1.10;;;15.00;53.40;;;;;;6218766;28;20033;-77
2022/11/05 16:31:04;;;;;;;1.42;1.00;;;15.00;53.60;;;;;;6251751;28;20029;-77
2022/11/05 16:34:05;;;;;;;4.78;1.20;;;15.00;54.40;;;;;;6239357;28;20049;-76
2022/11/05 16:37:10;;;;;;;1.13;1.02;;;14.90;54.00;;;;;;6253419;28;20037;-77
2022/11/05 16:40:23;;;;;;;3.40;1.25;;;14.90;54.10;;;;;;6249361;28;20450;-78
2022/11/05 16:43:25;;;;;;;4.50;1.50;;;14.90;54.20;;;;;;6222552;28;20111;-76
2022/11/05 16:46:28;;;;;;;4.88;1.27;;;14.80;54.10;;;;;;6225363;28;20052;-76
2022/11/05 16:49:29;;;;;;;2.28;1.33;;;14.80;54.20;;;;;;6216515;28;20024;-77
2022/11/05 16:52:30;;;;;;;3.72;1.13;;;14.80;54.10;;;;;;6250917;28;20085;-77
2022/11/05 16:55:32;;;;;;;3.60;1.30;;;14.70;54.10;;;;;;6236006;28;20144;-77
2022/11/05 16:58:33;;;;;;;4.93;1.77;;;14.80;54.00;;;;;;6233583;28;20539;-77